createdAt,value
2022-08-26T00:03:07.976Z,99.90
2022-08-26T00:05:59.810Z,99.90
2022-08-26T00:08:39.787Z,99.90
2022-08-26T00:14:06.793Z,99.90
2022-08-26T00:19:30.333Z,99.90
2022-08-26T00:22:21.664Z,99.90
2022-08-26T00:30:34.815Z,99.90
2022-08-26T00:38:44.818Z,99.90
2022-08-26T00:46:46.860Z,99.90
2022-08-26T00:49:44.827Z,99.90
2022-08-26T00:52:21.138Z,99.90
2022-08-26T01:00:45.212Z,99.90
2022-08-26T01:05:53.814Z,99.90
2022-08-26T01:14:05.830Z,99.90
2022-08-26T01:16:45.892Z,99.90
2022-08-26T01:19:31.865Z,99.90
2022-08-26T01:22:22.823Z,99.90
2022-08-26T01:27:56.866Z,99.90
2022-08-26T01:33:23.801Z,99.90
2022-08-26T01:36:05.347Z,99.90
2022-08-26T01:38:46.836Z,99.90
2022-08-26T01:41:53.519Z,99.90
2022-08-26T01:50:30.845Z,99.90
2022-08-26T01:53:29.819Z,99.90
2022-08-26T01:56:17.830Z,99.90
2022-08-26T01:58:56.977Z,99.90
2022-08-26T02:01:44.874Z,99.90
2022-08-26T02:04:35.008Z,99.90
2022-08-26T02:10:07.851Z,99.90
2022-08-26T02:13:01.886Z,99.90
2022-08-26T02:15:50.850Z,99.90
2022-08-26T02:21:13.857Z,99.90
2022-08-26T02:26:34.907Z,99.90
2022-08-26T02:29:38.871Z,99.90
2022-08-26T02:32:25.869Z,99.90
2022-08-26T02:38:10.016Z,99.90
2022-08-26T02:40:57.912Z,99.90
2022-08-26T02:46:27.715Z,99.90
2022-08-26T02:51:50.868Z,99.90
2022-08-26T02:54:26.938Z,99.90
2022-08-26T02:57:13.871Z,99.90
2022-08-26T03:02:35.886Z,99.90
2022-08-26T03:07:57.864Z,99.90
2022-08-26T03:19:03.891Z,99.90
2022-08-26T03:21:58.238Z,99.90
2022-08-26T03:24:46.145Z,99.90
2022-08-26T03:30:34.935Z,99.90
2022-08-26T03:35:58.887Z,99.90
2022-08-26T03:41:27.888Z,99.90
2022-08-26T03:47:02.877Z,99.90
2022-08-26T03:52:28.226Z,99.90
2022-08-26T04:00:37.932Z,99.90
2022-08-26T04:03:19.235Z,99.90
2022-08-26T04:06:05.931Z,99.90
2022-08-26T04:08:39.953Z,99.90
2022-08-26T04:11:29.936Z,99.90
2022-08-26T04:14:13.904Z,99.90
2022-08-26T04:17:11.904Z,99.90
2022-08-26T04:20:01.891Z,99.90
2022-08-26T04:22:42.898Z,99.90
2022-08-26T04:25:29.902Z,99.90
2022-08-26T04:31:04.919Z,99.90
2022-08-26T04:33:54.928Z,99.90
2022-08-26T04:39:22.916Z,99.90
2022-08-26T04:42:03.927Z,99.90
2022-08-26T04:44:57.919Z,99.90
2022-08-26T04:47:44.917Z,99.90
2022-08-26T04:53:20.914Z,99.90
2022-08-26T04:56:07.947Z,99.90
2022-08-26T04:58:48.912Z,99.90
2022-08-26T05:01:43.975Z,99.90
2022-08-26T05:04:30.977Z,99.90
2022-08-26T05:09:52.955Z,99.90
2022-08-26T05:15:16.925Z,99.90
2022-08-26T05:17:57.943Z,99.90
2022-08-26T05:20:54.543Z,99.90
2022-08-26T05:23:32.016Z,99.90
2022-08-26T05:28:57.020Z,99.90
2022-08-26T05:31:43.959Z,99.90
2022-08-26T05:37:06.973Z,99.90
2022-08-26T05:42:29.949Z,99.90
2022-08-26T05:45:10.983Z,99.90
2022-08-26T05:48:04.950Z,99.90
2022-08-26T05:50:55.953Z,99.90
2022-08-26T05:53:36.135Z,99.90
2022-08-26T05:56:17.973Z,99.90
2022-08-26T05:58:58.449Z,99.90
2022-08-26T06:04:21.041Z,99.90
2022-08-26T06:07:00.981Z,99.90
2022-08-26T06:09:43.965Z,99.90
2022-08-26T06:15:06.966Z,99.90
2022-08-26T06:17:53.978Z,99.90
2022-08-26T06:20:37.002Z,99.90
2022-08-26T06:23:38.097Z,99.90
2022-08-26T06:26:22.959Z,99.90
2022-08-26T06:29:11.001Z,99.90
2022-08-26T06:32:10.976Z,99.90
2022-08-26T06:34:58.008Z,99.90
2022-08-26T06:40:22.036Z,99.90
2022-08-26T06:45:42.976Z,99.90
2022-08-26T06:48:17.128Z,99.90
2022-08-26T06:51:20.025Z,99.90
2022-08-26T06:54:00.136Z,99.90
2022-08-26T06:56:50.023Z,99.90
2022-08-26T06:59:32.004Z,99.90
2022-08-26T07:02:28.589Z,99.90
2022-08-26T07:05:15.976Z,99.90
2022-08-26T07:10:37.988Z,99.90
2022-08-26T07:13:12.440Z,99.90
2022-08-26T07:16:03.172Z,99.90
2022-08-26T07:18:45.969Z,99.90
2022-08-26T07:21:33.006Z,99.90
2022-08-26T07:24:07.059Z,99.90
2022-08-26T07:26:54.010Z,99.90
2022-08-26T07:32:32.998Z,99.90
2022-08-26T07:35:21.025Z,99.90
2022-08-26T07:37:57.037Z,99.90
2022-08-26T07:40:44.122Z,99.90
2022-08-26T07:46:07.031Z,99.90
2022-08-26T07:48:46.203Z,99.90
2022-08-26T07:51:33.993Z,99.90
2022-08-26T07:54:08.090Z,99.90
2022-08-26T07:56:56.164Z,99.90
2022-08-26T08:02:25.040Z,99.90
2022-08-26T08:05:00.227Z,99.90
2022-08-26T08:07:47.035Z,99.90
2022-08-26T08:10:33.017Z,99.90
2022-08-26T08:13:28.007Z,99.90
2022-08-26T08:16:15.020Z,99.90
2022-08-26T08:21:37.029Z,99.90
2022-08-26T08:24:18.038Z,99.90
2022-08-26T08:27:12.096Z,99.90
2022-08-26T08:30:01.035Z,99.90
2022-08-26T08:32:35.445Z,99.90
2022-08-26T08:35:24.027Z,99.90
2022-08-26T08:40:48.038Z,99.90
2022-08-26T08:43:37.699Z,99.90
2022-08-26T08:46:26.088Z,99.90
2022-08-26T08:49:04.231Z,99.90
2022-08-26T08:51:52.055Z,99.90
2022-08-26T08:54:30.067Z,99.90
2022-08-26T08:57:55.053Z,99.90
2022-08-26T09:00:45.085Z,99.90
2022-08-26T09:03:45.049Z,99.90
2022-08-26T09:06:20.521Z,99.90
2022-08-26T09:09:09.020Z,99.90
2022-08-26T09:11:50.123Z,99.90
2022-08-26T09:14:30.048Z,99.90
2022-08-26T09:17:46.733Z,99.90
2022-08-26T09:20:35.065Z,99.90
2022-08-26T09:23:18.313Z,99.90
2022-08-26T09:26:02.064Z,99.90
2022-08-26T09:31:32.096Z,99.90
2022-08-26T09:34:39.072Z,99.90
2022-08-26T09:37:20.085Z,99.90
2022-08-26T09:40:24.081Z,99.90
2022-08-26T09:43:03.437Z,96.90
2022-08-26T09:45:55.896Z,96.50
2022-08-26T09:48:36.571Z,95.60
2022-08-26T09:51:34.061Z,88.30
2022-08-26T09:54:08.256Z,90.30
2022-08-26T09:59:30.851Z,89.70
2022-08-26T10:02:53.731Z,87.90
2022-08-26T10:05:56.446Z,85.50
2022-08-26T10:08:54.179Z,83.90
2022-08-26T10:12:13.093Z,87.50
2022-08-26T10:14:59.218Z,82.80
2022-08-26T10:17:53.109Z,78.30
2022-08-26T10:20:39.211Z,78.70
2022-08-26T10:23:31.115Z,80.90
2022-08-26T10:26:22.178Z,79.20
2022-08-26T10:29:20.121Z,80.50
2022-08-26T10:32:08.308Z,76.60
2022-08-26T10:34:54.124Z,79.10
2022-08-26T10:37:46.760Z,76.80
2022-08-26T10:40:56.099Z,77.30
2022-08-26T10:43:55.095Z,78.00
2022-08-26T10:46:40.994Z,78.50
2022-08-26T10:49:30.106Z,76.40
2022-08-26T10:52:24.105Z,76.40
2022-08-26T10:55:48.111Z,78.70
2022-08-26T10:58:36.449Z,77.10
2022-08-26T11:01:51.010Z,78.50
2022-08-26T11:04:48.255Z,79.60
2022-08-26T11:08:03.137Z,80.50
2022-08-26T11:10:58.962Z,80.20
2022-08-26T11:14:05.134Z,78.20
2022-08-26T11:16:49.339Z,77.80
2022-08-26T11:20:00.108Z,74.50
2022-08-26T11:22:47.824Z,76.40
2022-08-26T11:25:32.107Z,75.30
2022-08-26T11:30:58.019Z,75.60
2022-08-26T11:33:51.053Z,74.90
2022-08-26T11:36:46.113Z,76.90
2022-08-26T11:39:52.650Z,77.40
2022-08-26T11:42:37.826Z,74.20
2022-08-26T11:45:38.141Z,76.60
2022-08-26T11:48:44.361Z,75.80
2022-08-26T11:51:40.556Z,73.70
2022-08-26T11:54:35.107Z,75.50
2022-08-26T11:57:18.150Z,72.20
2022-08-26T12:00:22.430Z,73.90
2022-08-26T12:03:08.410Z,70.00
2022-08-26T12:06:00.158Z,70.30
2022-08-26T12:08:34.531Z,70.80
2022-08-26T12:11:27.128Z,68.70
2022-08-26T12:14:07.429Z,68.40
2022-08-26T12:16:55.232Z,69.30
2022-08-26T12:19:32.918Z,70.20
2022-08-26T12:22:37.147Z,67.60
2022-08-26T12:25:11.616Z,63.10
2022-08-26T12:27:59.154Z,61.90
2022-08-26T12:30:32.764Z,63.40
2022-08-26T12:33:26.202Z,62.60
2022-08-26T12:36:02.020Z,61.00
2022-08-26T12:38:50.215Z,60.90
2022-08-26T12:41:56.192Z,58.80
2022-08-26T12:44:39.363Z,61.20
2022-08-26T12:47:42.156Z,62.80
2022-08-26T12:50:59.178Z,58.50
2022-08-26T12:53:34.862Z,59.30
2022-08-26T12:56:42.224Z,59.50
2022-08-26T12:59:23.392Z,61.40
2022-08-26T13:04:46.231Z,60.50
2022-08-26T13:07:39.196Z,60.50
2022-08-26T13:10:34.279Z,59.80
2022-08-26T13:15:56.259Z,59.20
2022-08-26T13:18:44.285Z,60.80
2022-08-26T13:21:21.800Z,62.00
2022-08-26T13:26:45.902Z,60.10
2022-08-26T13:29:33.240Z,59.60
2022-08-26T13:32:07.948Z,58.80
2022-08-26T13:35:05.703Z,59.70
2022-08-26T13:37:46.322Z,60.20
2022-08-26T13:43:08.950Z,60.30
2022-08-26T13:45:58.225Z,58.30
2022-08-26T13:48:39.216Z,57.70
2022-08-26T13:54:12.220Z,55.20
2022-08-26T13:56:59.251Z,56.00
2022-08-26T13:59:32.922Z,54.70
2022-08-26T14:02:19.260Z,55.20
2022-08-26T14:04:54.845Z,53.90
2022-08-26T14:07:42.234Z,54.10
2022-08-26T14:10:16.050Z,55.70
2022-08-26T14:13:05.299Z,55.30
2022-08-26T14:15:41.044Z,55.60
2022-08-26T14:18:31.259Z,53.10
2022-08-26T14:21:20.266Z,52.50
2022-08-26T14:24:01.298Z,53.30
2022-08-26T14:26:41.873Z,53.90
2022-08-26T14:29:29.275Z,52.70
2022-08-26T14:32:22.959Z,54.10
2022-08-26T14:35:10.231Z,54.10
2022-08-26T14:37:43.999Z,54.80
2022-08-26T14:40:33.880Z,53.80
2022-08-26T14:43:15.251Z,52.80
2022-08-26T14:48:36.861Z,54.10
2022-08-26T14:51:24.260Z,52.80
2022-08-26T14:54:13.146Z,52.70
2022-08-26T14:57:02.312Z,51.40
2022-08-26T14:59:41.424Z,52.10
2022-08-26T15:02:32.937Z,50.20
2022-08-26T15:05:08.692Z,51.10
2022-08-26T15:10:29.820Z,51.80
2022-08-26T15:13:16.269Z,51.10
2022-08-26T15:15:49.906Z,50.40
2022-08-26T15:18:38.279Z,51.80
2022-08-26T15:21:19.283Z,52.20
2022-08-26T15:24:07.278Z,50.40
2022-08-26T15:26:47.296Z,52.10
2022-08-26T15:32:09.932Z,53.00
2022-08-26T15:34:57.300Z,52.90
2022-08-26T15:37:30.860Z,53.40
2022-08-26T15:40:18.343Z,54.90
2022-08-26T15:43:11.366Z,55.90
2022-08-26T15:48:36.910Z,55.40
2022-08-26T15:51:45.575Z,55.40
2022-08-26T15:54:22.687Z,55.80
2022-08-26T15:59:46.850Z,55.40
2022-08-26T16:05:08.287Z,55.60
2022-08-26T16:10:37.302Z,55.40
2022-08-26T16:13:18.847Z,55.70
2022-08-26T16:16:00.358Z,56.80
2022-08-26T16:21:31.347Z,59.20
2022-08-26T16:24:20.300Z,60.10
2022-08-26T16:26:54.568Z,60.90
2022-08-26T16:32:31.279Z,62.20
2022-08-26T16:35:05.341Z,63.10
2022-08-26T16:37:52.322Z,64.00
2022-08-26T16:40:26.439Z,65.10
2022-08-26T16:43:15.258Z,65.30
2022-08-26T16:48:36.318Z,64.80
2022-08-26T16:51:28.394Z,65.00
2022-08-26T16:54:09.329Z,64.40
2022-08-26T16:59:30.352Z,65.20
2022-08-26T17:02:11.973Z,66.20
2022-08-26T17:04:53.329Z,66.90
2022-08-26T17:10:16.317Z,68.10
2022-08-26T17:12:57.454Z,68.70
2022-08-26T17:15:37.399Z,69.30
2022-08-26T17:18:17.496Z,70.10
2022-08-26T17:20:59.343Z,70.80
2022-08-26T17:23:39.503Z,72.10
2022-08-26T17:26:19.318Z,73.20
2022-08-26T17:29:00.376Z,74.20
2022-08-26T17:31:41.326Z,75.10
2022-08-26T17:37:04.297Z,78.00
2022-08-26T17:39:52.331Z,80.20
2022-08-26T17:42:32.288Z,81.60
2022-08-26T17:45:13.475Z,83.90
2022-08-26T17:48:03.349Z,86.60
2022-08-26T17:50:37.517Z,88.40
2022-08-26T17:58:51.281Z,92.10
2022-08-26T18:01:28.506Z,92.90
2022-08-26T18:06:50.401Z,94.90
2022-08-26T18:09:38.310Z,95.90
2022-08-26T18:12:19.340Z,97.30
2022-08-26T18:17:40.461Z,99.60
2022-08-26T18:20:27.325Z,99.90
2022-08-26T18:31:13.490Z,99.90
2022-08-26T18:39:11.409Z,99.90
2022-08-26T18:41:59.327Z,99.90
2022-08-26T18:44:33.447Z,99.90
2022-08-26T18:47:21.338Z,99.90
2022-08-26T18:52:42.345Z,99.90
2022-08-26T18:55:17.410Z,99.90
2022-08-26T18:58:04.351Z,99.90
2022-08-26T19:03:26.371Z,99.90
2022-08-26T19:06:00.455Z,99.90
2022-08-26T19:08:49.741Z,99.90
2022-08-26T19:11:31.380Z,99.90
2022-08-26T19:16:56.534Z,99.90
2022-08-26T19:19:44.365Z,99.90
2022-08-26T19:25:07.367Z,99.90
2022-08-26T19:27:41.468Z,99.90
2022-08-26T19:30:29.367Z,99.90
2022-08-26T19:33:16.978Z,99.90
2022-08-26T19:35:58.393Z,99.90
2022-08-26T19:46:47.909Z,99.90
2022-08-26T19:49:34.961Z,99.90
2022-08-26T19:55:03.961Z,99.90
2022-08-26T19:57:40.031Z,99.90
2022-08-26T20:03:03.314Z,99.90
2022-08-26T20:05:49.939Z,99.90
2022-08-26T20:08:23.517Z,99.90
2022-08-26T20:11:15.922Z,99.90
2022-08-26T20:19:37.643Z,99.90
2022-08-26T20:25:05.991Z,99.90
2022-08-26T20:30:27.704Z,99.90
2022-08-26T20:35:54.989Z,99.90
2022-08-26T20:38:35.036Z,99.90
2022-08-26T20:41:15.002Z,99.90
2022-08-26T20:51:59.998Z,99.90
2022-08-26T20:57:21.009Z,99.90
2022-08-26T21:00:01.075Z,99.90
2022-08-26T21:02:40.996Z,99.90
2022-08-26T21:05:22.051Z,99.90
2022-08-26T21:08:03.029Z,99.90
2022-08-26T21:13:26.025Z,99.90
2022-08-26T21:18:47.010Z,99.90
2022-08-26T21:24:08.012Z,99.90
2022-08-26T21:32:12.414Z,99.90
2022-08-26T21:45:41.393Z,99.90
2022-08-26T21:53:58.170Z,99.90
2022-08-26T22:02:01.091Z,99.90
2022-08-26T22:04:48.130Z,99.90
2022-08-26T22:15:33.061Z,99.90
2022-08-26T22:26:25.451Z,99.90
2022-08-26T22:29:14.027Z,99.90
2022-08-26T22:34:49.038Z,99.90
2022-08-26T22:37:36.024Z,99.90
2022-08-26T22:53:47.078Z,99.90
2022-08-26T22:59:23.058Z,99.90
2022-08-26T23:04:54.081Z,99.90
2022-08-26T23:07:49.049Z,99.90
2022-08-26T23:10:36.094Z,99.90
2022-08-26T23:16:08.095Z,99.90
2022-08-26T23:18:42.157Z,99.90
2022-08-26T23:32:12.091Z,99.90
2022-08-26T23:35:01.560Z,99.90
2022-08-26T23:37:52.096Z,99.90
2022-08-26T23:43:23.099Z,99.90
2022-08-26T23:51:43.626Z,99.90
2022-08-26T23:54:26.069Z,99.90
2022-08-26T23:57:06.204Z,99.90
2022-08-26T23:59:47.068Z,99.90
